Pyriton, Alabama
Current Conditions -  °F | °C
As of 9:53 AM on Wednesday 26 Nov 2014 (Local Time) from KANB Reporting Station
Clear Clear  
Wind Chill: 45°   Ceiling: Unl
Heat Index: 47°   Visibility: 10mi
Dew Point: 28°   Wind: 5mph
Humidity: 48%   Direction: 180°S
Pressure: 30.17"   Gusts: NA
Location:  33.3533°N, 85.7343°W
Report Text: KANB 261553Z AUTO 18004KT 10SM CLR 08/M02 A3017 RMK AO2 SLP222 T00831022
Loading
Personal Weather Stations






























Interactive Weather Map New forecast layout! Learn more

10-Day Weather Forecast

Advertisements
Track Severe Weather on mobile